createdAt,value
2023-12-11T00:01:49.683Z,0.82
2023-12-11T00:04:17.740Z,0.95
2023-12-11T00:06:45.617Z,1.70
2023-12-11T00:09:14.323Z,1.10
2023-12-11T00:11:42.196Z,2.00
2023-12-11T00:14:11.428Z,1.08
2023-12-11T00:16:39.291Z,1.42
2023-12-11T00:19:07.312Z,1.67
2023-12-11T00:21:35.259Z,0.93
2023-12-11T00:24:03.165Z,1.67
2023-12-11T00:26:30.984Z,1.00
2023-12-11T00:28:58.866Z,0.73
2023-12-11T00:31:28.140Z,1.27
2023-12-11T00:33:56.162Z,0.73
2023-12-11T00:36:24.076Z,0.95
2023-12-11T00:38:52.138Z,1.45
2023-12-11T00:41:20.015Z,3.03
2023-12-11T00:43:47.958Z,1.55
2023-12-11T00:46:16.571Z,0.73
2023-12-11T00:48:46.371Z,1.05
2023-12-11T00:51:18.385Z,1.42
2023-12-11T00:53:46.310Z,2.50
2023-12-11T00:56:14.210Z,3.03
2023-12-11T00:58:42.200Z,2.00
2023-12-11T01:01:10.330Z,2.13
2023-12-11T01:03:39.375Z,1.63
2023-12-11T01:06:09.344Z,0.85
2023-12-11T01:08:39.959Z,1.30
2023-12-11T01:11:09.962Z,1.42
2023-12-11T01:13:37.976Z,0.82
2023-12-11T01:16:06.508Z,1.30
2023-12-11T01:18:34.686Z,1.05
2023-12-11T01:21:02.685Z,2.03
2023-12-11T01:23:32.001Z,1.88
2023-12-11T01:25:59.832Z,1.30
2023-12-11T01:28:27.765Z,1.67
2023-12-11T01:30:55.689Z,0.77
2023-12-11T01:33:23.872Z,1.73
2023-12-11T01:35:51.841Z,1.17
2023-12-11T01:38:19.860Z,0.70
2023-12-11T01:40:49.071Z,1.27
2023-12-11T01:43:19.548Z,0.80
2023-12-11T01:45:50.177Z,1.95
2023-12-11T01:48:18.232Z,0.73
2023-12-11T01:50:46.419Z,0.77
2023-12-11T01:53:14.318Z,0.80
2023-12-11T01:55:43.014Z,0.68
2023-12-11T01:58:14.014Z,1.45
2023-12-11T02:00:42.275Z,1.58
2023-12-11T02:03:11.555Z,0.93
2023-12-11T02:05:40.135Z,1.65
2023-12-11T02:08:07.983Z,0.60
2023-12-11T02:10:35.814Z,0.77
2023-12-11T02:13:04.165Z,1.27
2023-12-11T02:15:40.504Z,1.45
2023-12-11T02:18:10.227Z,0.88
2023-12-11T02:20:38.239Z,2.65
2023-12-11T02:23:07.370Z,0.85
2023-12-11T02:25:37.626Z,1.20
2023-12-11T02:28:07.468Z,0.73
2023-12-11T02:30:37.150Z,0.47
2023-12-11T02:33:05.302Z,1.08
2023-12-11T02:35:33.957Z,1.27
2023-12-11T02:38:01.848Z,1.05
2023-12-11T02:40:29.734Z,0.65
2023-12-11T02:42:57.671Z,0.95
2023-12-11T02:45:26.924Z,0.82
2023-12-11T02:47:58.116Z,1.95
2023-12-11T02:50:26.152Z,1.25
2023-12-11T02:52:53.991Z,2.17
2023-12-11T02:55:21.900Z,0.77
2023-12-11T02:57:49.773Z,0.88
2023-12-11T03:00:17.806Z,1.02
2023-12-11T03:02:47.044Z,1.02
2023-12-11T03:05:15.025Z,0.85
2023-12-11T03:07:42.898Z,1.00
2023-12-11T03:10:11.451Z,1.35
2023-12-11T03:12:39.428Z,1.92
2023-12-11T03:15:09.489Z,1.25
2023-12-11T03:17:37.617Z,1.80
2023-12-11T03:20:10.814Z,1.15
2023-12-11T03:22:38.695Z,1.25
2023-12-11T03:25:06.758Z,1.50
2023-12-11T03:27:34.921Z,2.42
2023-12-11T03:30:03.028Z,1.45
2023-12-11T03:32:30.911Z,0.68
2023-12-11T03:34:59.028Z,1.38
2023-12-11T03:37:28.587Z,2.25
2023-12-11T03:39:56.633Z,1.40
2023-12-11T03:42:24.556Z,1.77
2023-12-11T03:44:52.575Z,3.08
2023-12-11T03:47:22.475Z,1.63
2023-12-11T03:49:50.356Z,1.23
2023-12-11T03:52:18.297Z,1.00
2023-12-11T03:54:47.721Z,0.73
2023-12-11T03:57:15.624Z,1.08
2023-12-11T03:59:43.531Z,1.27
2023-12-11T04:02:11.667Z,1.48
2023-12-11T04:04:39.716Z,1.35
2023-12-11T04:07:07.865Z,2.20
2023-12-11T04:09:35.750Z,1.10
2023-12-11T04:12:05.690Z,1.98
2023-12-11T04:14:33.599Z,0.80
2023-12-11T04:17:01.464Z,1.30
2023-12-11T04:19:29.490Z,4.20
2023-12-11T04:21:57.559Z,2.55
2023-12-11T04:24:25.460Z,1.98
2023-12-11T04:26:53.333Z,2.15
2023-12-11T04:29:22.619Z,1.80
2023-12-11T04:31:50.451Z,2.10
2023-12-11T04:34:18.358Z,1.50
2023-12-11T04:36:46.377Z,1.92
2023-12-11T04:39:14.685Z,3.17
2023-12-11T04:41:42.535Z,2.00
2023-12-11T04:44:10.381Z,3.33
2023-12-11T04:46:39.642Z,1.40
2023-12-11T04:49:07.609Z,1.63
2023-12-11T04:51:35.567Z,1.35
2023-12-11T04:54:03.479Z,1.15
2023-12-11T04:56:31.388Z,1.88
2023-12-11T04:58:59.219Z,1.70
2023-12-11T05:01:28.003Z,2.13
2023-12-11T05:03:57.316Z,1.73
2023-12-11T05:06:25.164Z,2.35
2023-12-11T05:08:53.043Z,1.15
2023-12-11T05:11:20.880Z,1.05
2023-12-11T05:13:48.746Z,3.53
2023-12-11T05:16:16.989Z,2.65
2023-12-11T05:18:44.901Z,1.08
2023-12-11T05:21:14.168Z,3.00
2023-12-11T05:23:42.113Z,1.15
2023-12-11T05:26:10.042Z,0.98
2023-12-11T05:28:38.084Z,0.90
2023-12-11T05:31:06.226Z,1.15
2023-12-11T05:33:34.454Z,1.63
2023-12-11T05:36:02.382Z,1.05
2023-12-11T05:38:31.645Z,0.90
2023-12-11T05:40:59.577Z,1.00
2023-12-11T05:43:27.579Z,2.35
2023-12-11T05:45:55.436Z,3.70
2023-12-11T05:48:23.415Z,0.85
2023-12-11T05:50:51.340Z,1.40
2023-12-11T05:53:19.176Z,0.90
2023-12-11T05:55:48.420Z,1.13
2023-12-11T05:58:16.302Z,1.10
2023-12-11T06:00:45.898Z,4.45
2023-12-11T06:03:14.130Z,1.90
2023-12-11T06:05:42.162Z,3.58
2023-12-11T06:08:10.714Z,1.35
2023-12-11T06:10:38.568Z,3.92
2023-12-11T06:13:07.882Z,3.33
2023-12-11T06:15:35.829Z,4.50
2023-12-11T06:18:03.813Z,1.77
2023-12-11T06:20:31.753Z,2.97
2023-12-11T06:22:59.606Z,1.95
2023-12-11T06:25:27.482Z,3.80
2023-12-11T06:27:55.572Z,1.83
2023-12-11T06:30:25.106Z,1.63
2023-12-11T06:32:52.992Z,2.72
2023-12-11T06:35:20.893Z,1.40
2023-12-11T06:37:48.902Z,3.30
2023-12-11T06:40:17.006Z,6.22
2023-12-11T06:42:44.974Z,4.20
2023-12-11T06:45:13.607Z,2.75
2023-12-11T06:47:42.929Z,2.33
2023-12-11T06:50:11.303Z,3.90
2023-12-11T06:52:39.187Z,1.77
2023-12-11T06:55:08.807Z,1.83
2023-12-11T06:57:36.738Z,1.83
2023-12-11T07:00:06.552Z,2.20
2023-12-11T07:02:34.881Z,2.20
2023-12-11T07:05:04.508Z,1.55
2023-12-11T07:07:32.833Z,1.88
2023-12-11T07:10:05.693Z,1.17
2023-12-11T07:12:33.721Z,2.72
2023-12-11T07:15:01.630Z,2.42
2023-12-11T07:17:30.318Z,2.40
2023-12-11T07:19:59.606Z,2.47
2023-12-11T07:22:28.806Z,2.85
2023-12-11T07:24:56.702Z,1.38
2023-12-11T07:27:24.554Z,1.15
2023-12-11T07:29:52.422Z,3.10
2023-12-11T07:32:20.525Z,1.73
2023-12-11T07:34:48.415Z,1.63
2023-12-11T07:37:16.402Z,1.95
2023-12-11T07:39:45.755Z,2.22
2023-12-11T07:42:14.785Z,1.38
2023-12-11T07:44:42.647Z,1.70
2023-12-11T07:47:10.589Z,1.02
2023-12-11T07:49:38.480Z,4.18
2023-12-11T07:52:06.845Z,1.83
2023-12-11T07:54:34.680Z,3.08
2023-12-11T07:57:03.956Z,2.17
2023-12-11T07:59:31.788Z,2.17
2023-12-11T08:01:59.817Z,1.73
2023-12-11T08:04:27.869Z,1.90
2023-12-11T08:06:55.778Z,2.25
2023-12-11T08:09:23.659Z,2.30
2023-12-11T08:11:51.560Z,2.10
2023-12-11T08:14:20.776Z,2.65
2023-12-11T08:16:48.643Z,2.63
2023-12-11T08:19:16.525Z,3.40
2023-12-11T08:21:44.446Z,4.53
2023-12-11T08:24:13.213Z,4.72
2023-12-11T08:26:41.158Z,4.72
2023-12-11T08:29:09.132Z,3.55
2023-12-11T08:31:38.419Z,2.22
2023-12-11T08:34:06.468Z,3.78
2023-12-11T08:36:34.346Z,4.38
2023-12-11T08:39:02.262Z,2.58
2023-12-11T08:41:30.100Z,3.72
2023-12-11T08:43:58.001Z,4.18
2023-12-11T08:46:25.884Z,3.03
2023-12-11T08:48:55.176Z,3.05
2023-12-11T08:51:23.112Z,4.93
2023-12-11T08:53:50.969Z,2.33
2023-12-11T08:56:21.274Z,1.77
2023-12-11T08:58:49.220Z,2.30
2023-12-11T09:01:17.163Z,3.75
2023-12-11T09:03:45.461Z,2.42
2023-12-11T09:06:15.491Z,2.08
2023-12-11T09:08:44.218Z,2.67
2023-12-11T09:11:12.098Z,2.20
2023-12-11T09:13:41.834Z,1.98
2023-12-11T09:16:10.202Z,3.17
2023-12-11T09:18:38.293Z,3.10
2023-12-11T09:21:06.421Z,2.13
2023-12-11T09:23:35.705Z,2.30
2023-12-11T09:26:03.644Z,3.63
2023-12-11T09:28:37.550Z,2.95
2023-12-11T09:31:09.463Z,2.38
2023-12-11T09:33:39.271Z,3.30
2023-12-11T09:36:08.009Z,3.40
2023-12-11T09:38:37.273Z,2.35
2023-12-11T09:41:07.230Z,4.93
2023-12-11T09:43:36.513Z,2.00
2023-12-11T09:46:08.505Z,1.70
2023-12-11T09:48:36.505Z,1.60
2023-12-11T09:51:05.185Z,2.30
2023-12-11T09:53:34.491Z,2.53
2023-12-11T09:56:04.543Z,2.58
2023-12-11T09:58:32.423Z,3.08
2023-12-11T10:01:02.452Z,3.33
2023-12-11T10:03:30.868Z,2.60
2023-12-11T10:06:00.479Z,4.40
2023-12-11T10:08:28.420Z,4.20
2023-12-11T10:11:10.745Z,4.38
2023-12-11T10:13:38.641Z,4.20
2023-12-11T10:16:07.983Z,1.75
2023-12-11T10:18:50.040Z,3.08
2023-12-11T10:21:18.358Z,4.57
2023-12-11T10:23:46.284Z,5.18
2023-12-11T10:26:15.713Z,5.50
2023-12-11T10:28:43.560Z,2.88
2023-12-11T10:31:11.574Z,3.20
2023-12-11T10:33:50.833Z,3.75
2023-12-11T10:36:18.921Z,3.22
2023-12-11T10:38:47.352Z,3.17
2023-12-11T10:41:28.151Z,3.25
2023-12-11T10:44:08.357Z,2.17
2023-12-11T10:46:44.062Z,2.75
2023-12-11T10:49:12.547Z,2.17
2023-12-11T10:51:41.049Z,3.13
2023-12-11T10:54:09.380Z,3.28
2023-12-11T10:56:39.059Z,4.20
2023-12-11T10:59:07.607Z,4.43
2023-12-11T11:01:37.022Z,4.85
2023-12-11T11:04:05.415Z,2.83
2023-12-11T11:06:37.331Z,2.80
2023-12-11T11:09:10.147Z,3.35
2023-12-11T11:11:46.049Z,2.72
2023-12-11T11:14:39.440Z,2.63
2023-12-11T11:17:08.097Z,2.17
2023-12-11T11:19:36.854Z,2.10
2023-12-11T11:22:31.320Z,2.55
2023-12-11T11:25:31.984Z,2.25
2023-12-11T11:28:01.997Z,3.35
2023-12-11T11:30:52.148Z,4.43
2023-12-11T11:33:21.483Z,4.18
2023-12-11T11:35:50.933Z,2.35
2023-12-11T11:38:20.462Z,2.25
2023-12-11T11:40:49.955Z,2.78
2023-12-11T11:43:20.123Z,2.78
2023-12-11T11:45:55.665Z,6.70
2023-12-11T11:48:23.691Z,5.75
2023-12-11T11:50:53.875Z,7.20
2023-12-11T11:53:23.020Z,5.00
2023-12-11T11:55:51.928Z,5.57
2023-12-11T11:58:21.660Z,4.47
2023-12-11T12:00:50.467Z,3.33
2023-12-11T12:03:18.440Z,3.05
2023-12-11T12:05:57.381Z,5.18
2023-12-11T12:08:25.856Z,2.65
2023-12-11T12:10:58.131Z,3.83
2023-12-11T12:13:29.149Z,5.78
2023-12-11T12:15:57.178Z,5.55
2023-12-11T12:18:25.204Z,6.38
2023-12-11T12:21:03.782Z,6.03
2023-12-11T12:23:31.892Z,6.40
2023-12-11T12:26:01.830Z,4.65
2023-12-11T12:28:31.664Z,5.43
2023-12-11T12:30:59.881Z,6.90
2023-12-11T12:33:28.087Z,5.13
2023-12-11T12:35:56.663Z,8.10
2023-12-11T12:38:24.685Z,7.97
2023-12-11T12:40:54.737Z,3.33
2023-12-11T12:43:22.826Z,3.60
2023-12-11T12:45:52.133Z,5.45
2023-12-11T12:48:29.225Z,2.47
2023-12-11T12:51:06.943Z,3.30
2023-12-11T12:53:34.946Z,4.20
2023-12-11T12:56:03.187Z,2.75
2023-12-11T12:58:31.417Z,2.10
2023-12-11T13:01:00.827Z,2.53
2023-12-11T13:03:28.920Z,3.60
2023-12-11T13:05:59.234Z,5.72
2023-12-11T13:08:27.364Z,6.45
2023-12-11T13:10:56.366Z,12.80
2023-12-11T13:13:27.284Z,11.63
2023-12-11T13:15:56.712Z,12.27
2023-12-11T13:18:27.216Z,17.75
2023-12-11T13:20:55.290Z,5.40
2023-12-11T13:23:24.950Z,6.30
2023-12-11T13:25:52.864Z,7.63
2023-12-11T13:28:20.722Z,5.20
2023-12-11T13:30:48.678Z,4.82
2023-12-11T13:33:16.977Z,5.32
2023-12-11T13:35:46.423Z,4.75
2023-12-11T13:38:14.527Z,5.97
2023-12-11T13:40:42.365Z,2.80
2023-12-11T13:43:10.368Z,2.72
2023-12-11T13:45:38.592Z,3.95
2023-12-11T13:48:06.824Z,2.95
2023-12-11T13:50:34.740Z,2.90
2023-12-11T13:53:04.651Z,3.67
2023-12-11T13:55:32.552Z,2.20
2023-12-11T13:58:01.193Z,3.70
2023-12-11T14:00:29.116Z,3.33
2023-12-11T14:03:02.648Z,2.20
2023-12-11T14:05:34.157Z,4.43
2023-12-11T14:08:05.056Z,4.00
2023-12-11T14:10:34.650Z,4.07
2023-12-11T14:13:02.820Z,2.88
2023-12-11T14:15:30.757Z,1.73
2023-12-11T14:17:58.748Z,3.40
2023-12-11T14:20:26.705Z,3.85
2023-12-11T14:22:54.577Z,4.13
2023-12-11T14:25:25.956Z,1.60
2023-12-11T14:27:54.198Z,2.42
2023-12-11T14:30:22.207Z,2.85
2023-12-11T14:32:50.117Z,7.45
2023-12-11T14:35:18.322Z,6.80
2023-12-11T14:37:46.195Z,5.93
2023-12-11T14:40:14.183Z,3.70
2023-12-11T14:42:43.530Z,6.78
2023-12-11T14:45:11.852Z,5.55
2023-12-11T14:47:39.798Z,4.45
2023-12-11T14:50:08.915Z,5.68
2023-12-11T14:52:36.869Z,7.05
2023-12-11T14:55:06.008Z,4.13
2023-12-11T14:57:34.902Z,5.38
2023-12-11T15:00:04.760Z,7.15
2023-12-11T15:02:32.760Z,5.13
2023-12-11T15:05:00.707Z,8.93
2023-12-11T15:07:29.475Z,5.07
2023-12-11T15:09:58.925Z,7.05
2023-12-11T15:12:27.075Z,4.05
2023-12-11T15:14:55.362Z,3.53
2023-12-11T15:17:24.616Z,5.00
2023-12-11T15:19:52.511Z,5.00
2023-12-11T15:22:20.798Z,5.13
2023-12-11T15:24:48.684Z,5.43
2023-12-11T15:27:16.723Z,4.88
2023-12-11T15:29:44.552Z,6.05
2023-12-11T15:32:12.399Z,5.25
2023-12-11T15:34:42.516Z,11.07
2023-12-11T15:37:10.601Z,5.18
2023-12-11T15:39:38.468Z,3.40
2023-12-11T15:42:07.632Z,5.10
2023-12-11T15:44:36.425Z,2.25
2023-12-11T15:47:04.617Z,2.08
2023-12-11T15:49:32.570Z,2.13
2023-12-11T15:52:02.009Z,3.60
2023-12-11T15:54:29.977Z,5.25
2023-12-11T15:56:57.873Z,3.60
2023-12-11T15:59:25.745Z,5.18
2023-12-11T16:01:53.818Z,6.88
2023-12-11T16:04:21.838Z,6.20
2023-12-11T16:06:49.745Z,4.45
2023-12-11T16:09:19.524Z,6.90
2023-12-11T16:11:47.503Z,7.97
2023-12-11T16:14:15.590Z,4.78
2023-12-11T16:16:43.916Z,8.98
2023-12-11T16:19:12.392Z,8.15
2023-12-11T16:21:40.833Z,7.57
2023-12-11T16:24:08.983Z,6.78
2023-12-11T16:26:38.199Z,8.57
2023-12-11T16:29:06.079Z,9.88
2023-12-11T16:31:34.926Z,7.18
2023-12-11T16:34:04.310Z,5.80
2023-12-11T16:36:32.392Z,5.78
2023-12-11T16:39:00.277Z,6.00
2023-12-11T16:41:29.197Z,5.88
2023-12-11T16:43:58.647Z,5.10
2023-12-11T16:46:26.617Z,6.50
2023-12-11T16:48:54.720Z,5.28
2023-12-11T16:51:22.691Z,5.78
2023-12-11T16:53:50.774Z,4.03
2023-12-11T16:56:18.680Z,7.43
2023-12-11T16:58:46.911Z,5.15
2023-12-11T17:01:16.209Z,4.28
2023-12-11T17:03:44.468Z,6.82
2023-12-11T17:06:16.777Z,4.43
2023-12-11T17:08:44.711Z,4.35
2023-12-11T17:11:12.608Z,4.30
2023-12-11T17:13:41.308Z,5.57
2023-12-11T17:16:09.705Z,5.35
2023-12-11T17:18:39.310Z,5.07
2023-12-11T17:21:08.374Z,3.20
2023-12-11T17:23:38.339Z,6.13
2023-12-11T17:26:06.524Z,5.50
2023-12-11T17:28:34.457Z,7.45
2023-12-11T17:31:02.360Z,4.68
2023-12-11T17:33:30.896Z,5.80
2023-12-11T17:36:00.220Z,4.90
2023-12-11T17:38:28.431Z,4.20
2023-12-11T17:40:56.241Z,3.58
2023-12-11T17:43:24.346Z,3.30
2023-12-11T17:45:52.335Z,4.53
2023-12-11T17:48:20.304Z,4.10
2023-12-11T17:50:48.259Z,7.95
2023-12-11T17:53:17.536Z,4.10
2023-12-11T17:55:45.713Z,3.58
2023-12-11T17:58:13.694Z,4.13
2023-12-11T18:00:41.650Z,4.47
2023-12-11T18:03:09.524Z,4.55
2023-12-11T18:05:37.399Z,5.75
2023-12-11T18:08:05.651Z,6.63
2023-12-11T18:10:35.117Z,5.85
2023-12-11T18:13:03.344Z,6.45
2023-12-11T18:15:31.239Z,3.00
2023-12-11T18:17:59.626Z,3.88
2023-12-11T18:20:27.477Z,4.18
2023-12-11T18:22:55.355Z,4.85
2023-12-11T18:25:23.398Z,7.90
2023-12-11T18:27:52.702Z,5.78
2023-12-11T18:30:20.882Z,4.82
2023-12-11T18:32:48.854Z,5.78
2023-12-11T18:35:17.551Z,5.95
2023-12-11T18:37:45.473Z,6.43
2023-12-11T18:40:14.944Z,6.40
2023-12-11T18:42:44.581Z,9.35
2023-12-11T18:45:14.834Z,10.90
2023-12-11T18:47:42.777Z,9.73
2023-12-11T18:50:12.086Z,7.80
2023-12-11T18:52:42.700Z,7.63
2023-12-11T18:55:10.905Z,10.77
2023-12-11T18:57:38.758Z,13.20
2023-12-11T19:00:09.356Z,10.88
2023-12-11T19:02:38.843Z,12.57
2023-12-11T19:05:07.892Z,11.27
2023-12-11T19:07:35.956Z,6.95
2023-12-11T19:10:04.065Z,6.53
2023-12-11T19:12:32.032Z,8.23
2023-12-11T19:14:59.871Z,5.97
2023-12-11T19:17:27.748Z,8.55
2023-12-11T19:19:57.026Z,7.60
2023-12-11T19:22:24.947Z,5.45
2023-12-11T19:24:52.937Z,6.35
2023-12-11T19:27:21.942Z,6.03
2023-12-11T19:29:49.894Z,5.38
2023-12-11T19:32:18.996Z,7.53
2023-12-11T19:34:47.096Z,7.53
2023-12-11T19:37:16.494Z,6.78
2023-12-11T19:39:44.411Z,5.05
2023-12-11T19:42:12.333Z,6.28
2023-12-11T19:44:41.550Z,6.18
2023-12-11T19:47:09.524Z,5.88
2023-12-11T19:49:37.516Z,6.03
2023-12-11T19:52:06.072Z,4.50
2023-12-11T19:54:35.876Z,3.78
2023-12-11T19:57:03.733Z,8.38
2023-12-11T19:59:31.681Z,3.85
2023-12-11T20:02:00.843Z,5.78
2023-12-11T20:04:28.853Z,5.60
2023-12-11T20:06:56.737Z,6.18
2023-12-11T20:09:24.612Z,7.07
2023-12-11T20:12:04.011Z,4.80
2023-12-11T20:14:38.745Z,6.50
2023-12-11T20:17:06.594Z,3.88
2023-12-11T20:19:34.669Z,6.22
2023-12-11T20:22:03.370Z,7.90
2023-12-11T20:24:31.654Z,3.88
2023-12-11T20:27:00.968Z,4.97
2023-12-11T20:29:28.836Z,4.15
2023-12-11T20:31:56.725Z,9.55
2023-12-11T20:34:24.964Z,6.20
2023-12-11T20:36:53.542Z,6.95
2023-12-11T20:39:21.481Z,6.97
2023-12-11T20:41:49.323Z,6.28
2023-12-11T20:44:18.996Z,5.07
2023-12-11T20:46:46.856Z,8.38
2023-12-11T20:49:16.703Z,6.88
2023-12-11T20:51:44.862Z,4.35
2023-12-11T20:54:14.982Z,4.88
2023-12-11T20:56:42.973Z,5.53
2023-12-11T20:59:11.564Z,7.45
2023-12-11T21:01:41.419Z,6.38
2023-12-11T21:04:10.159Z,7.95
2023-12-11T21:06:39.766Z,7.40
2023-12-11T21:09:09.047Z,5.63
2023-12-11T21:11:37.419Z,8.60
2023-12-11T21:14:05.732Z,8.35
2023-12-11T21:16:35.406Z,7.35
2023-12-11T21:19:05.132Z,6.15
2023-12-11T21:21:33.439Z,7.15
2023-12-11T21:24:01.379Z,5.55
2023-12-11T21:26:30.108Z,6.90
2023-12-11T21:28:59.270Z,8.93
2023-12-11T21:31:29.703Z,9.02
2023-12-11T21:33:58.665Z,7.43
2023-12-11T21:36:31.763Z,5.53
2023-12-11T21:39:00.110Z,6.45
2023-12-11T21:41:28.287Z,8.18
2023-12-11T21:43:57.552Z,6.93
2023-12-11T21:46:26.963Z,8.80
2023-12-11T21:48:58.100Z,8.88
2023-12-11T21:51:29.417Z,6.93
2023-12-11T21:53:57.816Z,6.80
2023-12-11T21:56:26.884Z,6.68
2023-12-11T21:58:55.193Z,5.60
2023-12-11T22:01:23.261Z,4.20
2023-12-11T22:03:51.793Z,7.25
2023-12-11T22:06:20.176Z,4.40
2023-12-11T22:08:49.392Z,7.68
2023-12-11T22:11:18.082Z,7.82
2023-12-11T22:13:47.052Z,6.13
2023-12-11T22:16:16.473Z,5.05
2023-12-11T22:18:45.276Z,5.43
2023-12-11T22:21:13.252Z,7.43
2023-12-11T22:23:41.067Z,3.50
2023-12-11T22:26:10.268Z,4.80
2023-12-11T22:28:38.588Z,3.58
2023-12-11T22:31:06.554Z,5.22
2023-12-11T22:33:34.443Z,5.20
2023-12-11T22:36:02.298Z,6.63
2023-12-11T22:38:30.178Z,3.35
2023-12-11T22:40:59.088Z,5.05
2023-12-11T22:43:28.316Z,5.38
2023-12-11T22:45:56.249Z,5.63
2023-12-11T22:48:24.374Z,4.97
2023-12-11T22:50:52.513Z,3.05
2023-12-11T22:53:20.447Z,6.00
2023-12-11T22:55:48.363Z,5.45
2023-12-11T22:58:17.202Z,3.28
2023-12-11T23:00:46.685Z,5.25
2023-12-11T23:03:14.618Z,4.90
2023-12-11T23:05:42.712Z,3.70
2023-12-11T23:08:10.552Z,6.28
2023-12-11T23:10:38.465Z,3.38
2023-12-11T23:13:06.465Z,3.35
2023-12-11T23:15:34.306Z,3.88
2023-12-11T23:18:03.751Z,3.67
2023-12-11T23:20:31.602Z,3.55
2023-12-11T23:22:59.475Z,3.78
2023-12-11T23:25:27.348Z,4.22
2023-12-11T23:27:55.249Z,2.90
2023-12-11T23:30:23.123Z,3.83
2023-12-11T23:32:51.114Z,2.08
2023-12-11T23:35:20.673Z,1.60
2023-12-11T23:37:48.605Z,2.70
2023-12-11T23:40:16.768Z,4.22
2023-12-11T23:42:44.752Z,3.65
2023-12-11T23:45:12.856Z,3.63
2023-12-11T23:47:40.879Z,4.38
2023-12-11T23:50:09.503Z,3.70
2023-12-11T23:52:38.811Z,2.95
2023-12-11T23:55:07.834Z,3.47
2023-12-11T23:57:36.493Z,2.75
